CheckWX is a tool to help pilots better visualize weather data.  It is not intended as a substitute for an official pre-flight weather briefing.

17:12:17 UTC

KLSF METAR
Lawson AAF (Fort Benning) Airport
Fort Benning(Columbus), Georgia, USA
Current

6 mins ago

KLSF 211706Z AUTO 00000KT 10SM SCT037 BKN044 30/23 A3007 RMK AO2 SLP186
Observed
Jul-21 @ 17:06 UTC
Visibility
10 SM
Flight Rules
VFR
Cloud Levels
  • Scattered at 3,700' AGL
  • Broken at 4,400' AGL
Temperature
30°C / 86°F
Dewpoint
23°C / 73°F
Heat Index
34°C / 93°F
Humidity
66%
Altimeter
30.07" Hg
Pressure
1018.32 hPa
Previous

1 hour ago

KLSF 211601Z AUTO 15005KT 10SM BKN031 29/24 A3007 RMK AO2 SLP186
Observed
Jul-21 @ 16:01 UTC
Wind
  • 150° at 5 KTS
Visibility
10 SM
Flight Rules
VFR
Cloud Levels
  • Broken at 3,100' AGL
Temperature
29°C / 84°F
Dewpoint
24°C / 75°F
Heat Index
33°C / 92°F
Humidity
74%
Altimeter
30.07" Hg
Pressure
1018.32 hPa
Previous

1 hour ago

KLSF 211556Z AUTO 21003KT 10SM SCT031 29/24 A3008 RMK AO2 SLP189 T02930235
Observed
Jul-21 @ 15:56 UTC
Wind
  • 210° at 3 KTS
Visibility
10 SM
Flight Rules
VFR
Cloud Levels
  • Scattered at 3,100' AGL
Temperature
29°C / 84°F
Dewpoint
24°C / 75°F
Heat Index
33°C / 92°F
Humidity
74%
Altimeter
30.08" Hg
Pressure
1018.62 hPa